Time;durP1;ratioP1;P1;durP2;ratioP2;P2;SDS_P1;SDS_P2;PMS_P1;PMS_P2;Temp;Humidity;BMP_temperature;BMP_pressure;BME280_temperature;BME280_humidity;BME280_pressure;Samples;Min_cycle;Max_cycle;Signal;HPM_P1;HPM_P2
2022/03/23 00:00:09;;;;;;;24.43;16.83;;;;;;;5.50;63.54;101809.13;5084486;28;20643;-71
2022/03/23 00:02:36;;;;;;;25.97;17.20;;;;;;;5.46;63.98;101811.06;5083958;28;20535;-70
2022/03/23 00:05:02;;;;;;;32.97;16.87;;;;;;;5.45;64.29;101804.00;5082009;28;20748;-70
2022/03/23 00:07:30;;;;;;;26.43;16.37;;;;;;;5.34;64.71;101808.94;5083311;28;20475;-70
2022/03/23 00:09:57;;;;;;;23.73;14.63;;;;;;;5.28;65.07;101805.63;5085371;28;20444;-71
2022/03/23 00:12:24;;;;;;;21.40;14.63;;;;;;;5.12;65.96;101812.56;5082466;28;20479;-71
2022/03/23 00:14:50;;;;;;;20.13;14.00;;;;;;;5.07;66.49;101809.25;5095674;28;20477;-71
2022/03/23 00:17:17;;;;;;;20.33;14.57;;;;;;;5.07;66.50;101814.56;5098300;28;21283;-70
2022/03/23 00:19:44;;;;;;;19.80;12.87;;;;;;;5.09;66.19;101804.72;5093639;28;20471;-70
2022/03/23 00:22:11;;;;;;;20.87;14.33;;;;;;;4.94;66.62;101813.34;5089324;28;20499;-70
2022/03/23 00:24:39;;;;;;;21.13;14.40;;;;;;;4.81;67.04;101807.69;5082567;28;20473;-70
2022/03/23 00:27:06;;;;;;;23.57;15.07;;;;;;;4.72;67.22;101806.28;5092150;28;20593;-69
2022/03/23 00:29:33;;;;;;;21.50;14.70;;;;;;;4.70;66.98;101803.72;5082154;28;20440;-69
2022/03/23 00:31:59;;;;;;;26.43;16.03;;;;;;;4.66;67.02;101803.91;5081417;28;20908;-69
2022/03/23 00:34:26;;;;;;;20.90;15.20;;;;;;;4.62;67.27;101804.97;5087277;28;20461;-70
2022/03/23 00:36:53;;;;;;;25.50;16.50;;;;;;;4.63;67.14;101802.25;5083689;28;20472;-70
2022/03/23 00:39:22;;;;;;;29.13;16.87;;;;;;;4.59;67.27;101803.31;5098088;28;20445;-70
2022/03/23 00:41:50;;;;;;;20.73;15.20;;;;;;;4.61;67.11;101805.91;5087651;28;20562;-70
2022/03/23 00:44:17;;;;;;;24.13;18.33;;;;;;;4.68;66.78;101797.63;5100543;28;20443;-71
2022/03/23 00:46:44;;;;;;;23.13;16.43;;;;;;;4.73;66.60;101794.78;5099108;28;20556;-70
2022/03/23 00:49:10;;;;;;;24.60;17.43;;;;;;;4.77;66.34;101795.50;5085648;28;20444;-70
2022/03/23 00:51:37;;;;;;;27.50;16.60;;;;;;;4.76;66.47;101796.44;5089281;28;20481;-70
2022/03/23 00:54:04;;;;;;;25.00;17.23;;;;;;;4.71;66.60;101796.63;5087811;28;20478;-70
2022/03/23 00:56:31;;;;;;;26.33;16.90;;;;;;;4.69;66.72;101786.09;5088049;28;20478;-70
2022/03/23 00:58:59;;;;;;;27.03;16.20;;;;;;;4.67;66.78;101795.03;5087585;28;20459;-70
2022/03/23 01:01:27;;;;;;;26.73;17.57;;;;;;;4.62;67.32;101794.38;5085130;28;21065;-70
2022/03/23 01:03:54;;;;;;;19.97;14.93;;;;;;;4.47;67.84;101791.44;5081656;28;20424;-70
2022/03/23 01:06:21;;;;;;;23.60;14.50;;;;;;;4.43;67.97;101792.50;5085721;28;20506;-70
2022/03/23 01:08:48;;;;;;;27.63;15.73;;;;;;;4.32;68.33;101789.41;5101140;28;20477;-70
2022/03/23 01:11:15;;;;;;;24.17;15.17;;;;;;;4.35;68.14;101784.00;5082203;28;20475;-70
2022/03/23 01:13:41;;;;;;;25.80;16.50;;;;;;;4.33;68.33;101785.84;5087122;28;20490;-70
2022/03/23 01:16:09;;;;;;;22.73;15.87;;;;;;;4.28;68.44;101782.53;5082206;28;20480;-70
2022/03/23 01:18:36;;;;;;;23.47;17.00;;;;;;;4.21;68.26;101778.41;5091146;28;20452;-70
2022/03/23 01:21:03;;;;;;;23.70;15.97;;;;;;;4.22;68.10;101783.63;5080812;28;20483;-70
2022/03/23 01:23:30;;;;;;;21.97;15.47;;;;;;;4.28;67.88;101779.88;5090957;28;20443;-70
2022/03/23 01:25:57;;;;;;;26.93;16.60;;;;;;;4.25;68.24;101786.16;5098437;28;20502;-70
2022/03/23 01:28:23;;;;;;;27.17;15.90;;;;;;;4.20;68.70;101779.31;5089351;28;20538;-70
2022/03/23 01:30:50;;;;;;;24.17;14.80;;;;;;;4.21;68.63;101776.59;5098963;28;20578;-70
2022/03/23 01:33:18;;;;;;;26.73;15.47;;;;;;;4.13;68.45;101778.69;5086282;28;20439;-69
2022/03/23 01:35:45;;;;;;;24.50;17.03;;;;;;;4.04;69.23;101784.38;5089412;28;20491;-69
2022/03/23 01:38:11;;;;;;;28.30;15.67;;;;;;;4.04;69.15;101785.22;5100950;28;20482;-69
2022/03/23 01:40:38;;;;;;;21.60;15.40;;;;;;;4.03;69.42;101779.97;5088936;28;20471;-69
2022/03/23 01:43:06;;;;;;;22.20;15.50;;;;;;;4.06;69.38;101774.56;5081546;28;20508;-68
2022/03/23 01:45:33;;;;;;;26.63;16.10;;;;;;;4.01;69.55;101777.41;5088895;28;20471;-69
2022/03/23 01:47:59;;;;;;;23.13;15.40;;;;;;;4.01;69.63;101771.25;5087319;28;20475;-69
2022/03/23 01:50:27;;;;;;;26.03;16.30;;;;;;;4.07;69.34;101777.16;5095226;28;20459;-69
2022/03/23 01:52:54;;;;;;;32.10;17.90;;;;;;;4.02;69.42;101772.97;5083408;28;20512;-69
2022/03/23 01:55:21;;;;;;;22.13;15.80;;;;;;;3.95;69.61;101775.00;5078902;28;20494;-69
2022/03/23 01:57:52;;;;;;;25.67;14.23;;;;;;;3.94;69.57;101773.25;5096337;28;20477;-69
2022/03/23 02:00:19;;;;;;;23.33;15.87;;;;;;;3.89;69.67;101770.81;5079921;28;20704;-69
2022/03/23 02:02:46;;;;;;;20.90;13.43;;;;;;;3.87;69.63;101772.66;5083461;28;20440;-69
2022/03/23 02:05:14;;;;;;;17.97;14.10;;;;;;;3.76;69.80;101764.28;5082737;28;20520;-69
2022/03/23 02:07:42;;;;;;;20.83;15.40;;;;;;;3.75;69.96;101762.56;5087210;28;20450;-69
2022/03/23 02:10:10;;;;;;;22.73;15.67;;;;;;;3.64;70.03;101778.81;5097894;28;20435;-68
2022/03/23 02:12:37;;;;;;;24.47;15.30;;;;;;;3.54;70.38;101770.41;5086522;28;20505;-68
2022/03/23 02:15:12;;;;;;;18.60;12.50;;;;;;;3.50;70.65;101773.22;5086337;28;20448;-68
2022/03/23 02:17:39;;;;;;;19.70;14.63;;;;;;;3.48;70.65;101772.41;5095375;28;20566;-68
2022/03/23 02:20:08;;;;;;;17.57;12.90;;;;;;;3.39;70.55;101765.69;5084223;28;20468;-69
2022/03/23 02:22:36;;;;;;;23.53;14.30;;;;;;;3.38;70.53;101770.09;5086631;28;20489;-69
2022/03/23 02:25:03;;;;;;;23.07;14.60;;;;;;;3.42;70.30;101762.94;5097662;28;20470;-68
2022/03/23 02:27:31;;;;;;;18.70;12.97;;;;;;;3.35;70.35;101762.28;5085267;28;20483;-68
2022/03/23 02:29:58;;;;;;;19.87;14.70;;;;;;;3.26;70.93;101759.13;5085261;28;20601;-69
2022/03/23 02:32:25;;;;;;;23.27;13.80;;;;;;;3.18;71.46;101759.41;5083156;28;20550;-68
2022/03/23 02:34:52;;;;;;;17.97;13.13;;;;;;;3.18;71.68;101765.53;5087510;28;20432;-69
2022/03/23 02:37:18;;;;;;;29.43;14.53;;;;;;;3.21;71.64;101761.91;5101680;28;20474;-69
2022/03/23 02:39:46;;;;;;;20.77;13.53;;;;;;;3.15;71.91;101755.06;5102481;28;20504;-69
2022/03/23 02:42:13;;;;;;;23.07;14.50;;;;;;;3.14;72.05;101756.03;5092926;28;20487;-69
2022/03/23 02:44:40;;;;;;;22.83;14.80;;;;;;;3.12;72.26;101754.34;5099013;28;20443;-69
2022/03/23 02:47:08;;;;;;;25.10;15.00;;;;;;;3.19;72.15;101758.47;5090748;28;21026;-69
2022/03/23 02:49:35;;;;;;;25.87;15.20;;;;;;;3.26;72.14;101749.41;5084137;28;20444;-69
2022/03/23 02:52:02;;;;;;;24.67;14.93;;;;;;;3.23;71.83;101751.28;5084589;28;20914;-69
2022/03/23 03:03:13;;;;;;;22.27;14.20;;;;;;;2.99;71.92;101764.50;5088812;28;20492;-69
2022/03/23 03:05:40;;;;;;;25.40;14.33;;;;;;;2.78;72.75;101759.03;5093064;28;20464;-68
2022/03/23 03:11:05;;;;;;;20.23;15.10;;;;;;;2.80;73.11;101765.13;5066929;28;20468;-69
2022/03/23 03:13:34;;;;;;;25.10;16.17;;;;;;;2.82;72.94;101759.78;5080615;28;20460;-68
2022/03/23 03:16:02;;;;;;;25.83;15.70;;;;;;;2.82;72.71;101763.28;5078947;28;20479;-69
2022/03/23 03:18:30;;;;;;;24.90;15.67;;;;;;;2.85;72.39;101766.72;5097752;28;20825;-69
2022/03/23 03:20:57;;;;;;;28.33;15.97;;;;;;;2.92;72.02;101770.91;5083808;28;20487;-69
2022/03/23 03:23:24;;;;;;;25.73;17.50;;;;;;;2.94;71.91;101764.63;5086004;28;20475;-69
2022/03/23 03:25:50;;;;;;;30.97;18.63;;;;;;;2.96;71.87;101767.22;5083521;28;20479;-68
2022/03/23 03:28:17;;;;;;;22.60;15.83;;;;;;;2.94;72.15;101772.56;5089475;28;20504;-69
2022/03/23 03:30:45;;;;;;;22.33;15.83;;;;;;;2.89;72.17;101771.00;5091898;28;20505;-69
2022/03/23 03:33:11;;;;;;;21.70;16.33;;;;;;;2.91;72.05;101767.38;5097664;28;20443;-68
2022/03/23 03:35:38;;;;;;;24.03;16.50;;;;;;;2.89;71.63;101771.00;5088409;28;20539;-68
2022/03/23 03:38:05;;;;;;;22.83;15.77;;;;;;;2.89;71.60;101776.28;5090361;28;20486;-68
2022/03/23 03:40:31;;;;;;;21.63;13.53;;;;;;;2.88;71.36;101775.41;5092377;28;20470;-69
2022/03/23 03:42:58;;;;;;;25.77;15.27;;;;;;;2.87;71.74;101768.41;5092309;28;20470;-69
2022/03/23 03:45:25;;;;;;;24.27;15.37;;;;;;;2.93;71.84;101770.84;5083114;28;20451;-68
2022/03/23 03:47:53;;;;;;;23.83;15.00;;;;;;;2.85;72.15;101777.28;5083647;28;20464;-69
2022/03/23 03:50:20;;;;;;;21.30;15.00;;;;;;;2.76;72.31;101771.44;5082244;28;20486;-69
2022/03/23 03:52:46;;;;;;;21.93;13.43;;;;;;;2.70;72.70;101776.06;5098080;28;20464;-69
2022/03/23 03:55:13;;;;;;;20.20;14.20;;;;;;;2.63;72.83;101772.78;5082086;28;20542;-69
2022/03/23 03:57:40;;;;;;;20.87;14.60;;;;;;;2.60;72.84;101765.81;5081872;28;20478;-69
2022/03/23 04:00:08;;;;;;;23.60;14.27;;;;;;;2.62;72.90;101774.56;5081938;28;20452;-69
2022/03/23 04:02:34;;;;;;;23.00;15.27;;;;;;;2.52;73.30;101773.13;5098664;28;20455;-69
2022/03/23 04:05:02;;;;;;;20.23;13.50;;;;;;;2.54;73.65;101770.44;5095869;28;20461;-69
2022/03/23 04:07:33;;;;;;;24.20;16.87;;;;;;;2.57;73.38;101767.69;5098123;28;20479;-69
2022/03/23 04:10:00;;;;;;;28.37;15.17;;;;;;;2.60;73.37;101773.75;5095726;28;20693;-69
2022/03/23 04:12:28;;;;;;;23.80;14.40;;;;;;;2.58;73.37;101772.06;5083318;28;20517;-70
2022/03/23 04:14:54;;;;;;;23.17;14.70;;;;;;;2.62;73.15;101776.31;5082316;28;20444;-70
2022/03/23 04:17:21;;;;;;;27.37;15.50;;;;;;;2.60;72.79;101776.38;5082672;28;20838;-70
2022/03/23 04:19:48;;;;;;;26.37;15.30;;;;;;;2.64;72.53;101783.28;5081873;28;20452;-70
2022/03/23 04:22:16;;;;;;;28.50;16.83;;;;;;;2.63;72.10;101773.63;5089456;28;20507;-69
2022/03/23 04:24:43;;;;;;;24.43;16.27;;;;;;;2.66;71.58;101777.06;5094016;28;20522;-70
2022/03/23 04:27:10;;;;;;;30.00;18.10;;;;;;;2.55;72.04;101772.16;5086822;28;20479;-69
2022/03/23 04:29:36;;;;;;;25.17;17.70;;;;;;;2.56;72.02;101785.31;5093973;28;20439;-70
2022/03/23 04:32:04;;;;;;;24.70;15.90;;;;;;;2.53;72.27;101779.28;5081320;28;20549;-69
2022/03/23 04:34:30;;;;;;;26.53;17.20;;;;;;;2.49;72.52;101785.56;5082066;28;20440;-70
2022/03/23 04:36:57;;;;;;;24.67;17.30;;;;;;;2.44;72.56;101786.56;5100398;28;20471;-70
2022/03/23 04:39:25;;;;;;;23.80;16.53;;;;;;;2.40;72.77;101790.25;5082161;28;21037;-70
2022/03/23 04:41:52;;;;;;;21.73;14.17;;;;;;;2.39;72.94;101788.50;5094967;28;20479;-70
2022/03/23 04:44:19;;;;;;;23.33;15.07;;;;;;;2.43;72.84;101789.25;5098384;28;20431;-70
2022/03/23 04:46:45;;;;;;;25.07;15.93;;;;;;;2.36;72.93;101787.75;5092965;28;20572;-70
2022/03/23 04:49:13;;;;;;;21.03;16.10;;;;;;;2.33;72.89;101794.00;5095793;28;20451;-70
2022/03/23 04:51:40;;;;;;;27.27;16.93;;;;;;;2.32;72.81;101788.75;5080732;28;20563;-69
2022/03/23 04:54:06;;;;;;;22.23;16.33;;;;;;;2.26;72.69;101797.75;5091652;28;20550;-69
2022/03/23 04:56:34;;;;;;;31.67;17.20;;;;;;;2.16;73.03;101797.16;5089287;28;20484;-69
2022/03/23 04:59:01;;;;;;;23.23;15.57;;;;;;;2.11;72.87;101795.59;5085003;28;20491;-70
2022/03/23 05:01:28;;;;;;;23.47;16.33;;;;;;;2.07;73.09;101802.75;5084737;28;20479;-71
2022/03/23 05:03:57;;;;;;;27.17;17.33;;;;;;;2.02;73.50;101797.59;5082027;28;20444;-71
2022/03/23 05:06:23;;;;;;;23.37;16.97;;;;;;;1.93;73.93;101800.53;5081589;28;20476;-71
2022/03/23 05:08:50;;;;;;;25.07;16.40;;;;;;;1.97;74.26;101810.06;5081373;28;20464;-70
2022/03/23 05:11:17;;;;;;;30.00;17.47;;;;;;;2.01;74.25;101801.13;5089718;28;20475;-69
2022/03/23 05:13:45;;;;;;;27.43;17.67;;;;;;;2.02;74.06;101802.88;5083372;28;20440;-69
2022/03/23 05:16:12;;;;;;;28.20;16.40;;;;;;;2.15;73.93;101808.63;5078612;28;20498;-69
2022/03/23 05:18:38;;;;;;;23.40;15.73;;;;;;;2.18;73.54;101811.16;5086331;28;20451;-70
2022/03/23 05:21:05;;;;;;;26.07;16.33;;;;;;;2.18;73.36;101821.72;5089682;28;20529;-69
2022/03/23 05:23:32;;;;;;;25.63;17.60;;;;;;;2.18;73.34;101816.44;5092128;28;20440;-69
2022/03/23 05:25:58;;;;;;;26.27;17.67;;;;;;;2.16;73.26;101809.50;5087385;28;20487;-70
2022/03/23 05:28:26;;;;;;;22.13;14.70;;;;;;;2.11;73.15;101817.56;5086708;28;20762;-71
2022/03/23 05:30:54;;;;;;;21.33;14.07;;;;;;;2.16;73.17;101817.41;5100535;28;20504;-68
2022/03/23 05:33:20;;;;;;;22.43;15.43;;;;;;;2.15;72.73;101819.16;5100801;28;20474;-69
2022/03/23 05:35:47;;;;;;;21.30;15.40;;;;;;;2.17;72.65;101813.84;5088024;28;20468;-69
2022/03/23 05:38:14;;;;;;;21.90;16.80;;;;;;;2.10;72.87;101818.47;5088480;28;20462;-68
2022/03/23 05:40:41;;;;;;;22.13;15.87;;;;;;;2.18;73.06;101816.44;5084691;28;20468;-69
2022/03/23 05:43:08;;;;;;;23.43;15.70;;;;;;;2.23;72.87;101819.81;5082769;28;20446;-68
2022/03/23 05:45:36;;;;;;;25.40;16.47;;;;;;;2.31;72.75;101819.56;5084126;28;20842;-69
2022/03/23 05:48:04;;;;;;;23.60;15.70;;;;;;;2.37;72.54;101821.16;5085141;28;20452;-68
2022/03/23 05:50:31;;;;;;;23.83;15.80;;;;;;;2.50;72.33;101817.22;5086332;28;20491;-69
2022/03/23 05:52:58;;;;;;;22.30;16.60;;;;;;;2.62;72.12;101816.81;5098822;28;20909;-69
2022/03/23 05:55:24;;;;;;;23.77;17.33;;;;;;;2.68;71.72;101830.72;5085372;28;21056;-69
2022/03/23 05:57:51;;;;;;;21.93;14.63;;;;;;;2.75;71.56;101817.25;5094843;28;20448;-69
2022/03/23 06:00:19;;;;;;;21.67;14.67;;;;;;;2.89;71.46;101822.06;5084311;28;20674;-68
2022/03/23 06:02:46;;;;;;;24.67;14.33;;;;;;;3.15;71.33;101826.44;5091660;28;20486;-68
2022/03/23 06:05:14;;;;;;;23.67;15.73;;;;;;;3.58;70.13;101819.59;5086166;28;20443;-68
2022/03/23 06:07:41;;;;;;;23.47;16.93;;;;;;;4.52;67.53;101821.22;5088201;28;20513;-68
2022/03/23 06:10:08;;;;;;;26.33;14.87;;;;;;;5.43;64.15;101819.13;5085582;28;20436;-69
2022/03/23 06:12:35;;;;;;;21.97;14.10;;;;;;;7.02;59.65;101822.22;5098875;28;20463;-68
2022/03/23 06:15:02;;;;;;;22.93;14.90;;;;;;;7.77;55.83;101826.19;5098407;28;20503;-68
2022/03/23 06:17:29;;;;;;;19.60;15.20;;;;;;;8.23;54.20;101822.81;5097621;28;20480;-69
2022/03/23 06:19:55;;;;;;;20.23;14.90;;;;;;;9.04;51.44;101819.88;5100627;28;20451;-69
2022/03/23 06:22:23;;;;;;;26.87;14.87;;;;;;;9.20;50.54;101827.81;5091999;28;20483;-69
2022/03/23 06:24:50;;;;;;;19.93;15.13;;;;;;;9.28;50.14;101828.22;5095171;28;20467;-69
2022/03/23 06:27:17;;;;;;;17.20;13.67;;;;;;;9.85;48.77;101829.19;5091336;28;20507;-69
2022/03/23 06:29:44;;;;;;;21.67;15.87;;;;;;;10.00;47.08;101825.56;5087726;28;20463;-74
2022/03/23 06:32:12;;;;;;;24.73;15.73;;;;;;;10.20;47.26;101831.44;5083715;28;20472;-73
2022/03/23 06:34:38;;;;;;;30.20;15.70;;;;;;;11.21;44.67;101830.03;5084574;28;20443;-75
2022/03/23 06:37:05;;;;;;;37.07;18.40;;;;;;;9.99;47.21;101834.50;5083576;28;20997;-71
2022/03/23 06:39:33;;;;;;;18.43;14.43;;;;;;;9.77;48.01;101833.22;5089161;28;20645;-70
2022/03/23 06:42:00;;;;;;;27.43;17.10;;;;;;;10.20;47.36;101829.59;5084208;28;20493;-71
2022/03/23 06:44:27;;;;;;;21.80;16.53;;;;;;;10.41;46.59;101839.91;5085617;28;20458;-71
2022/03/23 06:46:54;;;;;;;24.87;17.53;;;;;;;10.69;46.29;101841.59;5083799;28;20509;-71
2022/03/23 06:49:21;;;;;;;20.60;15.40;;;;;;;10.86;45.87;101840.47;5083860;28;20475;-71
2022/03/23 06:51:48;;;;;;;19.90;16.43;;;;;;;10.87;46.27;101834.16;5094240;28;20472;-71
2022/03/23 06:54:14;;;;;;;21.00;17.77;;;;;;;13.18;40.37;101837.16;5091362;28;20490;-71
2022/03/23 06:56:42;;;;;;;22.03;16.70;;;;;;;13.59;39.27;101834.91;5083163;28;20511;-71
2022/03/23 06:59:09;;;;;;;21.63;17.40;;;;;;;12.38;41.40;101842.34;5080353;28;20908;-70
2022/03/23 07:01:36;;;;;;;20.27;18.20;;;;;;;13.22;39.40;101840.44;5096119;28;20563;-70
2022/03/23 07:04:03;;;;;;;21.60;15.97;;;;;;;13.10;39.64;101842.25;5102755;28;20461;-70
2022/03/23 07:06:29;;;;;;;27.67;17.60;;;;;;;12.12;42.09;101841.56;5101504;28;20466;-71
2022/03/23 07:11:40;;;;;;;24.30;20.20;;;;;;;13.37;38.23;101849.19;5081419;28;20517;-71
2022/03/23 07:14:08;;;;;;;24.30;20.17;;;;;;;14.51;35.74;101848.13;5090250;28;20435;-71
2022/03/23 07:16:35;;;;;;;22.73;20.23;;;;;;;14.46;35.42;101834.19;5100230;28;20475;-71
2022/03/23 07:19:01;;;;;;;26.47;20.53;;;;;;;14.97;34.91;101838.91;5083663;28;20483;-71
2022/03/23 07:21:28;;;;;;;22.20;19.80;;;;;;;13.84;36.73;101847.28;5080675;28;20487;-71
2022/03/23 07:23:55;;;;;;;23.27;20.63;;;;;;;14.99;34.13;101841.47;5081629;28;20440;-71
2022/03/23 07:26:22;;;;;;;22.77;20.40;;;;;;;14.79;34.45;101845.84;5079195;28;20460;-71
2022/03/23 07:28:49;;;;;;;23.73;21.33;;;;;;;14.49;34.38;101842.00;5076440;28;20494;-71
2022/03/23 07:31:17;;;;;;;23.20;20.83;;;;;;;14.87;33.86;101843.38;5077655;28;20470;-71
2022/03/23 07:33:44;;;;;;;23.53;21.13;;;;;;;16.09;31.61;101840.94;5091410;28;20444;-71
2022/03/23 07:36:12;;;;;;;23.63;21.07;;;;;;;15.92;31.22;101839.75;5091101;28;20530;-71
2022/03/23 07:38:38;;;;;;;25.80;21.10;;;;;;;17.36;28.88;101840.97;5089865;28;20446;-71
2022/03/23 07:41:05;;;;;;;22.83;20.43;;;;;;;17.24;28.70;101837.63;5100675;28;20467;-71
2022/03/23 07:43:32;;;;;;;22.40;19.80;;;;;;;17.96;27.49;101830.69;5102049;28;20467;-70
2022/03/23 07:45:58;;;;;;;23.37;20.70;;;;;;;18.10;27.57;101842.84;5087653;28;21132;-70
2022/03/23 07:48:27;;;;;;;22.83;20.30;;;;;;;18.19;27.11;101830.25;5101278;28;20478;-70
2022/03/23 07:50:53;;;;;;;28.50;20.43;;;;;;;17.89;27.23;101840.41;5099789;28;20468;-70
2022/03/23 07:53:20;;;;;;;21.80;19.50;;;;;;;17.58;27.81;101846.03;5101256;28;20492;-70
2022/03/23 07:55:47;;;;;;;22.40;20.00;;;;;;;18.26;27.06;101844.91;5086452;28;21044;-70
2022/03/23 07:58:14;;;;;;;21.57;18.57;;;;;;;17.68;27.82;101848.72;5080432;28;20456;-70
2022/03/23 08:00:43;;;;;;;21.30;18.87;;;;;;;18.28;26.79;101848.31;5080697;28;20464;-71
2022/03/23 08:03:10;;;;;;;21.73;18.50;;;;;;;18.38;26.90;101856.38;5082480;28;20482;-71
2022/03/23 08:05:39;;;;;;;23.33;19.10;;;;;;;17.59;27.78;101858.56;5089798;28;20464;-70
2022/03/23 08:08:07;;;;;;;21.70;18.87;;;;;;;18.16;26.90;101857.66;5100899;28;20454;-71
2022/03/23 08:10:35;;;;;;;22.33;19.80;;;;;;;17.03;28.50;101862.09;5101302;28;20479;-70
2022/03/23 08:13:01;;;;;;;23.93;20.13;;;;;;;18.12;27.53;101859.78;5097155;28;20456;-71
2022/03/23 08:15:29;;;;;;;25.40;20.93;;;;;;;18.88;25.85;101865.88;5080006;28;20531;-71
2022/03/23 08:17:56;;;;;;;22.50;18.27;;;;;;;18.69;26.41;101858.72;5086284;28;20449;-71
2022/03/23 08:20:36;;;;;;;21.40;19.23;;;;;;;18.37;27.13;101860.09;5099478;28;20437;-71
2022/03/23 08:23:06;;;;;;;21.50;19.20;;;;;;;19.32;25.81;101858.63;5097365;28;21044;-71
2022/03/23 08:25:33;;;;;;;21.40;19.20;;;;;;;19.56;25.34;101866.06;5079317;28;20472;-70
2022/03/23 08:28:01;;;;;;;20.43;18.33;;;;;;;19.80;25.18;101860.97;5083638;28;20442;-71
2022/03/23 08:30:28;;;;;;;21.23;18.80;;;;;;;19.38;26.35;101860.66;5097465;28;20489;-71
2022/03/23 08:32:55;;;;;;;22.27;19.57;;;;;;;19.33;25.95;101859.47;5084657;28;20509;-71
2022/03/23 08:35:23;;;;;;;21.63;19.43;;;;;;;21.18;23.54;101862.31;5079462;28;21010;-72
2022/03/23 08:37:50;;;;;;;22.70;20.30;;;;;;;21.09;23.58;101852.44;5080220;28;20768;-71
2022/03/23 08:40:18;;;;;;;22.47;19.80;;;;;;;19.88;25.21;101861.84;5082396;28;20481;-71
2022/03/23 08:42:45;;;;;;;22.77;20.57;;;;;;;19.95;24.58;101862.06;5096564;28;20489;-71
2022/03/23 08:45:13;;;;;;;23.17;20.90;;;;;;;20.10;24.31;101860.41;5099999;28;20512;-71
2022/03/23 08:47:40;;;;;;;22.83;19.90;;;;;;;20.21;24.49;101859.25;5100200;28;20434;-71
2022/03/23 08:50:08;;;;;;;23.03;20.63;;;;;;;20.25;25.11;101857.91;5099341;28;20467;-71
2022/03/23 08:52:35;;;;;;;21.80;19.60;;;;;;;21.15;23.31;101862.63;5086908;28;20547;-71
2022/03/23 08:55:02;;;;;;;22.43;20.23;;;;;;;20.38;24.33;101864.72;5079538;28;20495;-71
2022/03/23 08:57:30;;;;;;;22.70;20.37;;;;;;;19.61;25.22;101865.56;5078757;28;20476;-72
2022/03/23 08:59:57;;;;;;;21.70;19.50;;;;;;;21.35;24.05;101873.16;5079933;28;20527;-72
2022/03/23 09:02:24;;;;;;;22.00;19.87;;;;;;;21.29;23.39;101866.53;5078854;28;20479;-71
2022/03/23 09:04:51;;;;;;;22.80;19.23;;;;;;;21.78;22.75;101866.44;5081743;28;20511;-71
2022/03/23 09:07:18;;;;;;;24.70;20.10;;;;;;;20.79;24.16;101864.84;5099314;28;20471;-71
2022/03/23 09:09:44;;;;;;;23.67;19.77;;;;;;;21.17;24.11;101866.03;5095404;28;20498;-71
2022/03/23 09:12:11;;;;;;;22.23;19.90;;;;;;;22.56;22.10;101863.91;5077568;28;20494;-72
2022/03/23 09:14:40;;;;;;;23.20;20.83;;;;;;;20.87;24.04;101856.72;5080272;28;20424;-71
2022/03/23 09:17:07;;;;;;;21.90;19.60;;;;;;;22.47;23.10;101859.53;5078875;28;20471;-72
2022/03/23 09:19:34;;;;;;;22.83;19.90;;;;;;;22.59;22.04;101859.97;5078614;28;20432;-72
2022/03/23 09:22:01;;;;;;;25.87;20.67;;;;;;;22.26;22.86;101849.25;5078274;28;20945;-72
2022/03/23 09:24:27;;;;;;;23.63;20.30;;;;;;;21.12;24.27;101859.41;5078678;28;21000;-72
2022/03/23 09:26:55;;;;;;;22.93;20.63;;;;;;;22.85;22.44;101857.72;5078247;28;20463;-72
2022/03/23 09:29:22;;;;;;;21.67;19.60;;;;;;;22.87;22.02;101858.38;5078341;28;20459;-72
2022/03/23 09:31:51;;;;;;;24.63;20.77;;;;;;;21.47;23.61;101858.19;5077609;28;20479;-71
2022/03/23 09:34:18;;;;;;;25.60;20.47;;;;;;;23.64;21.44;101857.38;5079819;28;20439;-71
2022/03/23 09:39:28;;;;;;;21.57;19.47;;;;;;;22.36;21.76;101849.91;5065248;28;20451;-72
2022/03/23 09:41:58;;;;;;;27.10;19.00;;;;;;;22.39;21.51;101852.25;5091850;28;20539;-72
2022/03/23 09:44:28;;;;;;;23.27;20.57;;;;;;;21.60;22.51;101853.06;5079210;28;20439;-72
2022/03/23 09:46:57;;;;;;;21.07;19.17;;;;;;;23.02;21.14;101850.25;5078782;28;20589;-71
2022/03/23 09:49:24;;;;;;;21.83;19.53;;;;;;;21.94;21.60;101843.78;5078674;28;20447;-71
2022/03/23 09:51:53;;;;;;;22.37;19.93;;;;;;;23.19;20.73;101847.41;5091868;28;20518;-72
2022/03/23 09:54:21;;;;;;;24.20;20.93;;;;;;;22.17;22.44;101841.09;5081626;28;20756;-72
2022/03/23 09:56:48;;;;;;;21.20;18.90;;;;;;;22.02;22.37;101842.03;5088252;28;20476;-72
2022/03/23 09:59:15;;;;;;;21.03;18.93;;;;;;;22.91;21.72;101850.69;5078333;28;20455;-72
2022/03/23 10:02:26;;;;;;;22.87;20.63;;;;;;;24.03;20.46;101842.56;5078233;28;20559;-72
2022/03/23 10:05:31;;;;;;;22.90;20.13;;;;;;;22.94;20.54;101847.59;5067921;28;20522;-72
2022/03/23 10:08:08;;;;;;;20.97;18.87;;;;;;;24.03;19.41;101849.94;5084791;28;20439;-71
2022/03/23 10:11:17;;;;;;;20.47;18.47;;;;;;;23.73;19.89;101839.00;5099178;28;20492;-72
2022/03/23 10:14:26;;;;;;;20.63;18.63;;;;;;;22.23;21.27;101834.09;5016339;28;20983;-72
2022/03/23 10:17:31;;;;;;;20.33;18.20;;;;;;;23.04;20.65;101834.56;5078483;28;20463;-72
2022/03/23 10:20:00;;;;;;;20.30;18.23;;;;;;;24.77;18.73;101836.06;5066270;28;20459;-72
2022/03/23 10:22:29;;;;;;;21.53;19.43;;;;;;;25.76;17.52;101836.97;5077961;28;20479;-71
2022/03/23 10:24:56;;;;;;;21.33;19.03;;;;;;;25.38;17.37;101831.94;5079131;28;20443;-71
2022/03/23 10:27:25;;;;;;;18.97;17.17;;;;;;;24.81;16.99;101833.78;5078459;28;21237;-71
2022/03/23 10:29:53;;;;;;;20.53;18.30;;;;;;;24.27;18.08;101834.22;5094404;28;20500;-71
2022/03/23 10:32:21;;;;;;;20.93;18.77;;;;;;;24.66;17.95;101831.09;5090682;28;20507;-71
2022/03/23 10:34:49;;;;;;;20.03;17.93;;;;;;;23.61;20.10;101833.16;5101414;28;20546;-72
2022/03/23 10:37:24;;;;;;;20.83;18.67;;;;;;;24.01;17.83;101832.88;5094898;28;20475;-72
2022/03/23 10:39:51;;;;;;;21.07;18.97;;;;;;;25.41;16.66;101819.72;5081757;28;20515;-72
2022/03/23 10:42:20;;;;;;;21.07;18.87;;;;;;;24.79;16.82;101816.72;5081019;28;20484;-71
2022/03/23 10:44:48;;;;;;;20.67;18.60;;;;;;;23.84;18.36;101826.78;5082982;28;20434;-71
2022/03/23 10:47:31;;;;;;;21.40;18.60;;;;;;;24.06;17.99;101814.00;5081682;28;20468;-71
2022/03/23 10:49:58;;;;;;;19.90;17.90;;;;;;;24.78;17.88;101818.56;5094868;28;21029;-72
2022/03/23 10:52:28;;;;;;;18.97;17.07;;;;;;;26.88;15.34;101817.53;5081304;28;20924;-72
2022/03/23 10:54:57;;;;;;;20.03;18.10;;;;;;;26.19;16.06;101814.00;5081697;28;20515;-72
2022/03/23 10:57:46;;;;;;;19.90;17.90;;;;;;;24.32;18.14;101816.22;5093309;28;20467;-72
2022/03/23 11:00:16;;;;;;;18.53;16.70;;;;;;;25.31;16.44;101811.84;5089256;28;20952;-72
2022/03/23 11:02:46;;;;;;;18.57;16.67;;;;;;;24.91;16.67;101804.19;5081772;28;20470;-71
2022/03/23 11:05:13;;;;;;;21.20;19.00;;;;;;;26.22;15.52;101808.97;5080862;28;20498;-73
2022/03/23 11:07:41;;;;;;;20.40;18.43;;;;;;;24.92;16.71;101811.34;5082199;28;20446;-71
2022/03/23 11:16:01;;;;;;;19.67;17.77;;;;;;;25.47;14.92;101805.25;5073008;28;20462;-70
2022/03/23 11:18:28;;;;;;;18.27;16.50;;;;;;;26.30;14.72;101797.81;5079952;28;20444;-71
2022/03/23 11:20:56;;;;;;;19.90;17.90;;;;;;;25.61;14.87;101803.44;5081090;28;20484;-70
2022/03/23 11:23:26;;;;;;;17.90;16.13;;;;;;;25.68;15.59;101807.03;5080860;28;20444;-70
2022/03/23 11:25:53;;;;;;;21.50;18.57;;;;;;;24.54;15.49;101795.22;5077037;28;20538;-70
2022/03/23 11:28:21;;;;;;;20.20;18.20;;;;;;;26.21;14.79;101792.72;5079464;28;20530;-71
2022/03/23 11:30:49;;;;;;;19.20;17.30;;;;;;;26.59;14.28;101798.47;5080723;28;20471;-71
2022/03/23 11:33:16;;;;;;;20.90;18.80;;;;;;;25.46;15.95;101790.69;5084734;28;20506;-73
2022/03/23 11:35:48;;;;;;;19.43;17.40;;;;;;;25.74;15.48;101795.25;5101137;28;20563;-72
2022/03/23 11:38:17;;;;;;;19.20;17.40;;;;;;;25.55;16.17;101784.00;5101555;28;20458;-71
2022/03/23 11:40:46;;;;;;;20.67;18.67;;;;;;;24.83;15.85;101785.19;5101106;28;20475;-72